Time;durP1;ratioP1;P1;durP2;ratioP2;P2;SDS_P1;SDS_P2;PMS_P1;PMS_P2;Temp;Humidity;BMP_temperature;BMP_pressure;BME280_temperature;BME280_humidity;BME280_pressure;Samples;Min_cycle;Max_cycle;Signal;HPM_P1;HPM_P2
2022/06/19 00:00:00;;;;;;;2.47;2.00;;;19.40;99.90;;;;;;5075041;28;20444;-65
2022/06/19 00:02:32;;;;;;;1.93;1.60;;;19.10;99.90;;;;;;5076032;28;20908;-63
2022/06/19 00:05:03;;;;;;;2.60;1.90;;;18.50;99.90;;;;;;5074863;28;20463;-66
2022/06/19 00:07:34;;;;;;;2.57;1.90;;;18.30;99.90;;;;;;5076337;28;20514;-63
2022/06/19 00:10:06;;;;;;;2.83;2.27;;;18.20;99.90;;;;;;5074521;28;20434;-64
2022/06/19 00:12:37;;;;;;;1.70;1.60;;;18.00;99.90;;;;;;5075577;28;20450;-64
2022/06/19 00:15:09;;;;;;;2.70;2.00;;;17.80;99.90;;;;;;5075271;28;20431;-63
2022/06/19 00:17:42;;;;;;;4.07;1.80;;;17.60;99.90;;;;;;5075358;28;20426;-63
2022/06/19 00:20:14;;;;;;;1.70;1.60;;;17.40;99.90;;;;;;5076714;28;20472;-63
2022/06/19 00:22:46;;;;;;;2.30;1.67;;;17.30;99.90;;;;;;5081565;28;20465;-63
2022/06/19 00:25:16;;;;;;;2.50;1.97;;;17.10;99.90;;;;;;5081319;28;20470;-64
2022/06/19 00:27:48;;;;;;;3.33;2.03;;;17.10;99.90;;;;;;5078734;28;20812;-63
2022/06/19 00:30:19;;;;;;;2.53;1.83;;;17.30;99.90;;;;;;5080344;28;20433;-63
2022/06/19 00:32:52;;;;;;;2.60;2.07;;;17.40;99.90;;;;;;5080840;28;20437;-62
2022/06/19 00:35:26;;;;;;;2.97;2.10;;;17.40;99.90;;;;;;5076022;28;20440;-63
2022/06/19 00:38:01;;;;;;;2.10;1.87;;;17.50;99.90;;;;;;5075089;28;20462;-62
2022/06/19 00:40:40;;;;;;;2.93;2.00;;;17.50;99.90;;;;;;5082711;28;20501;-63
2022/06/19 00:43:11;;;;;;;2.13;1.90;;;17.50;99.90;;;;;;5081995;28;20491;-61
2022/06/19 00:45:50;;;;;;;3.20;2.40;;;17.60;99.90;;;;;;5076315;28;20419;-63
2022/06/19 00:48:27;;;;;;;4.13;2.20;;;17.30;99.90;;;;;;5078971;28;20507;-62
2022/06/19 00:51:02;;;;;;;1.83;1.63;;;17.30;99.90;;;;;;5084609;28;20471;-64
2022/06/19 00:53:41;;;;;;;2.47;2.27;;;17.30;99.90;;;;;;5074419;28;21379;-62
2022/06/19 00:56:30;;;;;;;4.70;3.07;;;17.10;99.90;;;;;;5083790;28;20422;-62
2022/06/19 00:59:01;;;;;;;3.07;2.60;;;17.10;99.90;;;;;;5083114;28;20449;-62
2022/06/19 01:01:32;;;;;;;3.33;2.60;;;17.00;99.90;;;;;;5083701;28;20438;-62
2022/06/19 01:04:11;;;;;;;2.90;2.70;;;16.90;99.90;;;;;;5082624;28;20478;-62
2022/06/19 01:06:42;;;;;;;2.10;2.00;;;16.80;99.90;;;;;;5082670;28;20458;-63
2022/06/19 01:09:13;;;;;;;2.97;2.40;;;16.80;99.90;;;;;;5083681;28;20469;-63
2022/06/19 01:11:44;;;;;;;3.80;2.50;;;16.90;99.90;;;;;;5083386;28;20430;-63
2022/06/19 01:14:19;;;;;;;2.93;2.50;;;17.20;99.90;;;;;;5083950;28;20542;-63
2022/06/19 01:16:51;;;;;;;2.30;1.90;;;17.40;99.90;;;;;;5082807;28;20454;-64
2022/06/19 01:19:30;;;;;;;2.53;2.30;;;17.60;99.90;;;;;;5083181;28;20482;-65
2022/06/19 01:22:08;;;;;;;2.30;2.10;;;17.70;99.90;;;;;;5082723;28;20570;-63
2022/06/19 01:24:54;;;;;;;2.43;2.23;;;17.60;99.90;;;;;;5085342;28;20450;-63
2022/06/19 01:30:15;;;;;;;2.13;2.00;;;17.40;99.90;;;;;;5079424;28;20479;-64
2022/06/19 01:32:48;;;;;;;2.03;1.87;;;17.50;99.90;;;;;;5083937;28;20467;-64
2022/06/19 01:35:20;;;;;;;3.70;3.30;;;17.50;99.90;;;;;;5083590;28;20470;-65
2022/06/19 01:37:52;;;;;;;4.70;2.97;;;17.20;99.90;;;;;;5068427;28;20737;-65
2022/06/19 01:40:28;;;;;;;2.77;2.20;;;17.00;99.90;;;;;;5083750;28;20543;-65
2022/06/19 01:42:59;;;;;;;2.03;1.80;;;16.90;99.90;;;;;;5083828;28;20508;-65
2022/06/19 01:45:31;;;;;;;2.17;1.97;;;16.90;99.90;;;;;;5083435;28;20467;-63
2022/06/19 01:48:02;;;;;;;3.07;2.13;;;16.90;99.90;;;;;;5083040;28;20551;-66
2022/06/19 01:50:34;;;;;;;1.97;1.83;;;17.00;99.90;;;;;;5081061;28;20540;-63
2022/06/19 01:53:10;;;;;;;2.87;1.90;;;16.90;99.90;;;;;;5083512;28;20470;-64
2022/06/19 01:55:43;;;;;;;2.80;2.30;;;17.00;99.90;;;;;;5082015;28;20436;-65
2022/06/19 01:58:14;;;;;;;1.57;1.47;;;16.90;99.90;;;;;;5082863;28;20418;-65
2022/06/19 02:00:48;;;;;;;3.73;1.93;;;16.90;99.90;;;;;;5082758;28;20465;-65
2022/06/19 02:03:27;;;;;;;3.07;2.40;;;16.70;99.90;;;;;;5083986;28;20498;-65
2022/06/19 02:05:59;;;;;;;3.13;2.17;;;16.60;99.90;;;;;;5081747;28;20434;-67
2022/06/19 02:08:31;;;;;;;2.70;2.03;;;16.60;99.90;;;;;;5078429;28;20433;-66
2022/06/19 02:11:06;;;;;;;2.60;2.07;;;16.60;99.90;;;;;;5077452;28;20427;-66
2022/06/19 02:13:38;;;;;;;2.03;1.83;;;16.60;99.90;;;;;;5075930;28;20486;-66
2022/06/19 02:16:11;;;;;;;2.20;2.00;;;16.50;99.90;;;;;;5078820;28;20742;-65
2022/06/19 02:18:45;;;;;;;2.50;2.30;;;16.60;99.90;;;;;;5080110;28;20546;-66
2022/06/19 02:21:19;;;;;;;3.10;2.33;;;16.70;99.90;;;;;;5075977;28;20559;-66
2022/06/19 02:23:51;;;;;;;2.87;1.93;;;16.80;99.90;;;;;;5078849;28;20464;-65
2022/06/19 02:26:23;;;;;;;2.87;2.57;;;16.70;99.90;;;;;;5081721;28;20467;-65
2022/06/19 02:28:54;;;;;;;3.00;2.53;;;16.70;99.90;;;;;;5084069;28;20739;-66
2022/06/19 02:31:25;;;;;;;2.30;1.73;;;16.60;99.90;;;;;;5083573;28;20459;-65
2022/06/19 02:34:00;;;;;;;2.80;2.33;;;16.50;99.90;;;;;;5083710;28;20430;-65
2022/06/19 02:36:45;;;;;;;2.70;2.00;;;16.50;99.90;;;;;;5083491;28;20430;-65
2022/06/19 02:39:30;;;;;;;2.00;1.67;;;16.50;99.90;;;;;;5080136;28;20486;-65
2022/06/19 02:42:17;;;;;;;2.73;1.90;;;16.40;99.90;;;;;;5082306;28;20445;-65
2022/06/19 02:44:50;;;;;;;2.80;1.50;;;16.40;99.90;;;;;;5083082;28;20934;-66
2022/06/19 02:47:23;;;;;;;2.07;1.53;;;16.30;99.90;;;;;;5080154;28;20459;-65
2022/06/19 02:49:53;;;;;;;1.90;1.37;;;16.10;99.90;;;;;;5076668;28;20444;-65
2022/06/19 02:52:24;;;;;;;1.90;1.60;;;16.10;99.90;;;;;;5076246;28;20458;-66
2022/06/19 02:54:56;;;;;;;2.77;1.70;;;16.20;99.90;;;;;;5076489;28;20987;-67
2022/06/19 02:57:29;;;;;;;1.63;1.43;;;16.10;99.90;;;;;;5074188;28;20459;-67
2022/06/19 03:00:00;;;;;;;2.97;2.10;;;16.00;99.90;;;;;;5075567;28;20962;-66
2022/06/19 03:02:31;;;;;;;1.73;1.43;;;16.00;99.90;;;;;;5074686;28;20985;-67
2022/06/19 03:05:04;;;;;;;2.27;1.93;;;15.90;99.90;;;;;;5075893;28;20595;-66
2022/06/19 03:07:35;;;;;;;1.83;1.73;;;15.90;99.90;;;;;;5075936;28;20475;-67
2022/06/19 03:10:07;;;;;;;2.40;2.20;;;15.90;99.90;;;;;;5074305;28;21036;-66
2022/06/19 03:12:39;;;;;;;2.17;1.50;;;15.80;99.90;;;;;;5075221;28;20467;-68
2022/06/19 03:15:14;;;;;;;1.90;1.67;;;15.80;99.90;;;;;;5075935;28;20455;-67
2022/06/19 03:17:45;;;;;;;3.50;1.63;;;15.80;99.90;;;;;;5074821;28;20457;-67
2022/06/19 03:20:18;;;;;;;2.50;1.60;;;15.70;99.90;;;;;;5075758;28;20483;-67
2022/06/19 03:22:51;;;;;;;2.90;2.23;;;15.70;99.90;;;;;;5077758;28;20552;-66
2022/06/19 03:25:23;;;;;;;2.97;2.20;;;15.70;99.90;;;;;;5076293;28;20506;-66
2022/06/19 03:27:57;;;;;;;2.07;1.37;;;15.60;99.90;;;;;;5081770;28;20463;-66
2022/06/19 03:30:28;;;;;;;2.20;1.63;;;15.60;99.90;;;;;;5080996;28;20551;-66
2022/06/19 03:32:59;;;;;;;1.90;1.53;;;15.40;99.90;;;;;;5082697;28;20443;-66
2022/06/19 03:35:30;;;;;;;2.80;2.13;;;15.30;99.90;;;;;;5082786;28;20447;-66
2022/06/19 03:38:01;;;;;;;2.33;1.93;;;15.30;99.90;;;;;;5079665;28;20486;-66
2022/06/19 03:40:32;;;;;;;1.90;1.77;;;15.20;99.90;;;;;;5072335;28;20478;-66
2022/06/19 03:43:04;;;;;;;2.40;1.60;;;15.20;99.90;;;;;;5080761;28;20483;-66
2022/06/19 03:45:35;;;;;;;1.87;1.40;;;15.30;99.90;;;;;;5077770;28;20448;-66
2022/06/19 03:48:07;;;;;;;2.53;1.57;;;15.30;99.90;;;;;;5081078;28;20441;-66
2022/06/19 03:50:39;;;;;;;2.13;1.93;;;15.30;99.90;;;;;;5082207;28;20470;-66
2022/06/19 03:53:10;;;;;;;3.40;2.17;;;15.20;99.90;;;;;;5081659;28;20920;-66
2022/06/19 03:55:41;;;;;;;2.70;2.00;;;15.20;99.90;;;;;;5072946;28;20575;-66
2022/06/19 03:58:13;;;;;;;3.10;1.90;;;15.10;99.90;;;;;;5079407;28;20460;-65
2022/06/19 04:00:44;;;;;;;1.60;1.50;;;15.10;99.90;;;;;;5079055;28;20477;-65
2022/06/19 04:03:15;;;;;;;2.20;2.00;;;15.10;99.90;;;;;;5080779;28;20466;-66
2022/06/19 04:05:46;;;;;;;2.40;1.77;;;15.10;99.90;;;;;;5082152;28;20534;-65
2022/06/19 04:08:17;;;;;;;2.20;2.00;;;15.00;99.90;;;;;;5081180;28;20489;-65
2022/06/19 04:10:49;;;;;;;1.87;1.77;;;15.00;99.90;;;;;;5080327;28;20436;-65
2022/06/19 04:13:22;;;;;;;2.77;2.47;;;15.00;99.90;;;;;;5071951;28;20441;-65
2022/06/19 04:15:53;;;;;;;4.13;2.00;;;15.00;99.90;;;;;;5076419;28;20781;-66
2022/06/19 04:18:25;;;;;;;2.73;2.33;;;14.90;99.90;;;;;;5080746;28;20455;-66
2022/06/19 04:20:56;;;;;;;3.03;2.23;;;14.90;99.90;;;;;;5081036;28;20493;-66
2022/06/19 04:23:27;;;;;;;2.10;1.80;;;14.80;99.90;;;;;;5075584;28;20566;-66
2022/06/19 04:25:58;;;;;;;2.80;2.60;;;14.80;99.90;;;;;;5073168;28;20438;-65
2022/06/19 04:28:32;;;;;;;1.50;1.40;;;14.70;99.90;;;;;;5072739;28;20470;-66
2022/06/19 04:31:03;;;;;;;2.00;1.80;;;14.70;99.90;;;;;;5075165;28;20471;-66
2022/06/19 04:33:38;;;;;;;2.90;2.10;;;14.70;99.90;;;;;;5075360;28;20435;-67
2022/06/19 04:36:11;;;;;;;2.37;1.73;;;14.70;99.90;;;;;;5074539;28;20435;-67
2022/06/19 04:38:43;;;;;;;3.10;1.87;;;14.70;99.90;;;;;;5075876;28;20459;-66
2022/06/19 04:41:16;;;;;;;3.47;2.50;;;14.70;99.90;;;;;;5073293;28;20557;-66
2022/06/19 04:43:50;;;;;;;2.60;2.40;;;14.70;99.90;;;;;;5074013;28;20483;-67
2022/06/19 04:46:21;;;;;;;2.93;1.90;;;14.60;99.90;;;;;;5073937;28;20542;-66
2022/06/19 04:48:52;;;;;;;2.50;2.23;;;14.70;99.90;;;;;;5073657;28;20444;-67
2022/06/19 04:51:24;;;;;;;2.30;2.07;;;14.70;99.90;;;;;;5074236;28;20558;-66
2022/06/19 04:53:55;;;;;;;2.67;1.97;;;14.60;99.90;;;;;;5075256;28;20605;-66
2022/06/19 04:56:26;;;;;;;2.77;2.17;;;14.60;99.90;;;;;;5073226;28;20482;-66
2022/06/19 04:59:01;;;;;;;3.13;2.67;;;14.60;99.90;;;;;;5074269;28;20522;-66
2022/06/19 05:01:34;;;;;;;2.87;2.57;;;14.60;99.90;;;;;;5073582;28;20569;-67
2022/06/19 05:04:09;;;;;;;3.10;2.30;;;14.50;99.90;;;;;;5079559;28;20588;-65
2022/06/19 05:06:41;;;;;;;3.70;2.03;;;14.50;99.90;;;;;;5076532;28;20505;-65
2022/06/19 05:09:12;;;;;;;2.80;2.20;;;14.50;99.90;;;;;;5077928;28;20470;-65
2022/06/19 05:11:43;;;;;;;2.20;2.00;;;14.50;99.90;;;;;;5078577;28;20466;-65
2022/06/19 05:14:15;;;;;;;2.20;2.00;;;14.50;99.90;;;;;;5081798;28;20451;-65
2022/06/19 05:16:46;;;;;;;1.63;1.40;;;14.50;99.90;;;;;;5079380;28;20467;-66
2022/06/19 05:19:17;;;;;;;1.90;1.80;;;14.50;99.90;;;;;;5080876;28;20796;-66
2022/06/19 05:21:48;;;;;;;1.90;1.63;;;14.40;99.90;;;;;;5075245;28;20463;-66
2022/06/19 05:24:19;;;;;;;2.33;1.80;;;14.40;99.90;;;;;;5083792;28;20490;-66
2022/06/19 05:26:53;;;;;;;3.70;2.40;;;14.40;99.90;;;;;;5084046;28;20451;-65
2022/06/19 05:29:28;;;;;;;2.20;2.00;;;14.40;99.90;;;;;;5085241;28;20957;-66
2022/06/19 05:32:04;;;;;;;2.93;2.63;;;14.40;99.90;;;;;;5068920;28;20848;-65
2022/06/19 05:34:36;;;;;;;3.30;1.80;;;14.40;99.90;;;;;;5081838;28;20471;-66
2022/06/19 05:37:09;;;;;;;2.70;1.70;;;14.30;99.90;;;;;;5085071;28;20462;-65
2022/06/19 05:39:40;;;;;;;2.60;1.70;;;14.40;99.90;;;;;;5083256;28;20471;-65
2022/06/19 05:42:11;;;;;;;2.50;2.03;;;14.50;99.90;;;;;;5077479;28;20467;-65
2022/06/19 05:44:44;;;;;;;2.03;1.83;;;14.40;99.90;;;;;;5082901;28;20491;-65
2022/06/19 05:47:15;;;;;;;2.03;1.43;;;14.40;99.90;;;;;;5082550;28;20463;-66
2022/06/19 05:49:49;;;;;;;2.43;1.67;;;14.30;99.90;;;;;;5084016;28;21014;-66
2022/06/19 05:52:22;;;;;;;1.77;1.23;;;14.30;99.90;;;;;;5083845;28;20459;-65
2022/06/19 05:54:54;;;;;;;2.30;1.83;;;14.30;99.90;;;;;;5082505;28;20485;-65
2022/06/19 05:57:25;;;;;;;2.90;2.20;;;14.30;99.90;;;;;;5078056;28;20455;-65
2022/06/19 05:59:58;;;;;;;2.83;1.60;;;14.30;99.90;;;;;;5083235;28;20475;-65
2022/06/19 06:02:28;;;;;;;3.20;2.17;;;14.30;99.90;;;;;;5083216;28;20456;-65
2022/06/19 06:05:03;;;;;;;2.37;1.83;;;14.30;99.90;;;;;;5083587;28;20457;-66
2022/06/19 06:07:34;;;;;;;2.20;1.87;;;14.30;99.90;;;;;;5080590;28;20978;-65
2022/06/19 06:10:06;;;;;;;2.10;1.70;;;14.30;99.90;;;;;;5081823;28;20459;-65
2022/06/19 06:12:37;;;;;;;3.93;2.00;;;14.30;99.90;;;;;;5082444;28;20540;-65
2022/06/19 06:15:10;;;;;;;2.50;1.67;;;14.30;99.90;;;;;;5083242;28;20467;-65
2022/06/19 06:17:41;;;;;;;2.00;1.80;;;14.40;99.90;;;;;;5079475;28;20455;-65
2022/06/19 06:20:12;;;;;;;2.60;2.10;;;14.30;99.90;;;;;;5083224;28;20510;-66
2022/06/19 06:22:43;;;;;;;2.80;2.50;;;14.30;99.90;;;;;;5084382;28;20462;-65
2022/06/19 06:25:14;;;;;;;2.10;1.70;;;14.30;99.90;;;;;;5083018;28;20491;-65
2022/06/19 06:27:45;;;;;;;3.17;2.33;;;14.30;99.90;;;;;;5079942;28;20467;-65
2022/06/19 06:30:18;;;;;;;2.97;1.97;;;14.30;99.90;;;;;;5077241;28;20482;-65
2022/06/19 06:32:49;;;;;;;3.43;2.20;;;14.30;99.90;;;;;;5082026;28;20464;-65
2022/06/19 06:35:20;;;;;;;2.10;1.90;;;14.30;99.90;;;;;;5083288;28;20459;-65
2022/06/19 06:37:51;;;;;;;3.50;1.87;;;14.30;99.90;;;;;;5083136;28;20460;-65
2022/06/19 06:40:22;;;;;;;2.40;2.20;;;14.30;99.90;;;;;;5073445;28;20460;-65
2022/06/19 06:42:52;;;;;;;1.97;1.83;;;14.20;99.90;;;;;;5082045;28;20530;-65
2022/06/19 06:45:25;;;;;;;3.07;2.00;;;14.20;99.90;;;;;;5082285;28;20513;-65
2022/06/19 06:47:56;;;;;;;2.50;1.80;;;14.20;99.90;;;;;;5078816;28;20469;-65
2022/06/19 06:50:26;;;;;;;2.80;1.90;;;14.20;99.90;;;;;;5075169;28;20554;-65
2022/06/19 06:52:57;;;;;;;3.43;2.43;;;14.20;99.90;;;;;;5082277;28;20472;-65
2022/06/19 06:55:28;;;;;;;2.40;1.73;;;14.20;99.90;;;;;;5080813;28;20464;-65
2022/06/19 06:58:00;;;;;;;1.90;1.60;;;14.30;99.90;;;;;;5081444;28;20945;-65
2022/06/19 07:00:32;;;;;;;2.80;1.70;;;14.30;99.90;;;;;;5080463;28;20566;-65
2022/06/19 07:03:03;;;;;;;2.57;2.30;;;14.30;99.90;;;;;;5081447;28;20475;-65
2022/06/19 07:05:34;;;;;;;2.73;2.10;;;14.20;99.90;;;;;;5082736;28;20583;-65
2022/06/19 07:08:06;;;;;;;2.50;2.30;;;14.20;99.90;;;;;;5079541;28;20486;-65
2022/06/19 07:10:37;;;;;;;2.47;2.20;;;14.20;99.90;;;;;;5080876;28;20463;-65
2022/06/19 07:13:09;;;;;;;2.60;2.33;;;14.10;99.90;;;;;;5082012;28;20535;-65
2022/06/19 07:15:42;;;;;;;3.83;2.60;;;14.10;99.90;;;;;;5081259;28;20459;-65
2022/06/19 07:18:17;;;;;;;3.00;2.70;;;14.10;99.90;;;;;;5081678;28;20461;-65
2022/06/19 07:20:47;;;;;;;2.57;2.30;;;14.10;99.90;;;;;;5080426;28;20514;-67
2022/06/19 07:23:18;;;;;;;3.60;2.60;;;14.10;99.90;;;;;;5080678;28;20571;-66
2022/06/19 07:25:49;;;;;;;2.43;1.90;;;14.10;99.90;;;;;;5074071;28;20511;-66
2022/06/19 07:28:20;;;;;;;2.80;2.57;;;14.10;99.90;;;;;;5081205;28;20467;-67
2022/06/19 07:30:54;;;;;;;1.87;1.70;;;14.10;99.90;;;;;;5080699;28;20549;-66
2022/06/19 07:33:26;;;;;;;2.97;2.10;;;14.10;99.90;;;;;;5081809;28;20517;-67
2022/06/19 07:35:57;;;;;;;2.00;1.80;;;14.10;99.90;;;;;;5081282;28;21261;-66
2022/06/19 07:38:27;;;;;;;3.70;2.30;;;14.10;99.90;;;;;;5081597;28;20455;-66
2022/06/19 07:40:58;;;;;;;3.10;2.30;;;14.20;99.90;;;;;;5080822;28;20578;-66
2022/06/19 07:43:29;;;;;;;2.90;2.50;;;14.20;99.90;;;;;;5080749;28;20490;-66
2022/06/19 07:46:01;;;;;;;2.50;2.23;;;14.20;99.90;;;;;;5081110;28;20470;-66
2022/06/19 07:51:23;;;;;;;2.40;2.20;;;14.10;99.90;;;;;;5080576;28;20795;-66
2022/06/19 07:54:00;;;;;;;2.43;2.23;;;14.10;99.90;;;;;;5081556;28;20463;-66
2022/06/19 07:56:31;;;;;;;2.30;2.10;;;14.10;99.90;;;;;;5079623;28;20470;-66
2022/06/19 07:59:03;;;;;;;3.70;2.33;;;14.10;99.90;;;;;;5081610;28;20778;-66
2022/06/19 08:01:35;;;;;;;4.07;2.47;;;14.10;99.90;;;;;;5080092;28;20464;-66
2022/06/19 08:04:26;;;;;;;3.37;2.00;;;14.10;99.90;;;;;;5070348;28;20501;-66
2022/06/19 08:06:57;;;;;;;2.50;2.10;;;14.10;99.90;;;;;;5081381;28;20539;-66
2022/06/19 08:09:28;;;;;;;2.53;2.33;;;14.10;99.90;;;;;;5081648;28;20756;-66
2022/06/19 08:12:00;;;;;;;3.10;2.77;;;14.10;99.90;;;;;;5078068;28;20467;-64
2022/06/19 08:14:31;;;;;;;2.20;1.93;;;14.10;99.90;;;;;;5080425;28;20447;-66
2022/06/19 08:17:03;;;;;;;3.10;2.43;;;14.00;99.90;;;;;;5080734;28;20473;-66
2022/06/19 08:19:34;;;;;;;3.57;2.23;;;14.00;99.90;;;;;;5080290;28;20555;-66
2022/06/19 08:22:05;;;;;;;3.10;2.50;;;14.00;99.90;;;;;;5080526;28;20451;-67
2022/06/19 08:24:36;;;;;;;2.43;2.23;;;14.00;99.90;;;;;;5081338;28;20489;-66
2022/06/19 08:27:08;;;;;;;3.43;2.90;;;14.00;99.90;;;;;;5078821;28;20514;-65
2022/06/19 08:29:39;;;;;;;3.43;1.90;;;14.00;99.90;;;;;;5080226;28;20467;-66
2022/06/19 08:32:11;;;;;;;2.50;1.90;;;14.00;99.90;;;;;;5081594;28;20602;-64
2022/06/19 08:34:42;;;;;;;2.80;2.00;;;13.90;99.90;;;;;;5079411;28;20951;-66
2022/06/19 08:37:14;;;;;;;2.83;2.07;;;13.90;99.90;;;;;;5072297;28;20444;-64
2022/06/19 08:39:46;;;;;;;2.80;2.10;;;13.90;99.90;;;;;;5073576;28;20555;-67
2022/06/19 08:42:37;;;;;;;3.53;2.10;;;13.90;99.90;;;;;;5076089;28;20482;-66
2022/06/19 08:45:42;;;;;;;2.67;1.70;;;14.00;99.90;;;;;;5069193;28;20469;-66
2022/06/19 08:48:45;;;;;;;2.83;1.80;;;13.90;99.90;;;;;;5078247;28;20470;-66
2022/06/19 08:51:27;;;;;;;3.80;2.60;;;14.00;99.90;;;;;;5080309;28;20462;-66
2022/06/19 08:54:14;;;;;;;2.70;2.00;;;14.00;99.90;;;;;;5081084;28;20462;-66
2022/06/19 08:56:54;;;;;;;3.13;2.23;;;14.00;99.90;;;;;;5076115;28;20574;-66
2022/06/19 08:59:36;;;;;;;2.43;1.77;;;14.00;99.90;;;;;;5084435;28;20458;-66
2022/06/19 09:02:13;;;;;;;2.77;1.90;;;13.90;99.90;;;;;;5083149;28;20463;-66
2022/06/19 09:07:59;;;;;;;2.57;1.90;;;13.80;99.90;;;;;;5077423;28;20466;-67
2022/06/19 09:10:40;;;;;;;2.17;1.97;;;13.80;99.90;;;;;;5082909;28;20477;-67
2022/06/19 09:13:58;;;;;;;2.37;1.90;;;13.70;99.90;;;;;;5084929;28;20470;-66
2022/06/19 09:16:37;;;;;;;2.77;2.30;;;13.60;99.90;;;;;;5021859;28;20561;-66
2022/06/19 09:19:15;;;;;;;2.30;2.00;;;13.60;99.90;;;;;;5018208;28;20485;-66
2022/06/19 09:22:04;;;;;;;2.50;2.10;;;13.60;99.90;;;;;;5021529;28;20473;-66
2022/06/19 09:24:58;;;;;;;2.80;1.70;;;13.60;99.90;;;;;;5020952;28;20462;-66
2022/06/19 09:27:35;;;;;;;3.00;2.13;;;13.60;99.90;;;;;;5012154;28;20533;-66
2022/06/19 09:30:12;;;;;;;3.03;1.97;;;13.60;99.90;;;;;;5022450;28;20491;-66
2022/06/19 09:32:50;;;;;;;2.37;1.83;;;13.60;99.90;;;;;;5023126;28;20461;-67
2022/06/19 09:35:43;;;;;;;3.30;2.13;;;13.50;99.90;;;;;;5022332;28;20478;-66
2022/06/19 09:38:20;;;;;;;3.40;2.20;;;13.50;99.90;;;;;;5022190;28;20473;-67
2022/06/19 09:40:57;;;;;;;2.97;2.67;;;13.50;99.90;;;;;;5022500;28;20541;-66
2022/06/19 09:43:33;;;;;;;3.40;2.37;;;13.50;99.90;;;;;;5014676;28;20473;-66
2022/06/19 09:46:09;;;;;;;4.20;2.60;;;13.50;99.90;;;;;;5020242;28;20818;-66
2022/06/19 09:48:48;;;;;;;3.70;2.47;;;13.50;99.90;;;;;;5022807;28;21186;-66
2022/06/19 09:51:24;;;;;;;3.83;2.23;;;13.40;99.90;;;;;;5062936;28;20463;-67
2022/06/19 09:54:02;;;;;;;3.33;2.10;;;13.40;99.90;;;;;;5082528;28;20513;-67
2022/06/19 09:56:43;;;;;;;2.93;2.03;;;13.40;99.90;;;;;;5082724;28;20462;-67
2022/06/19 09:59:19;;;;;;;3.10;2.40;;;13.30;99.90;;;;;;5082151;28;20470;-67
2022/06/19 10:01:57;;;;;;;5.20;2.90;;;13.30;99.90;;;;;;5082750;28;21038;-67
2022/06/19 10:04:40;;;;;;;4.00;2.80;;;13.20;99.90;;;;;;5067756;28;20457;-67
2022/06/19 10:07:17;;;;;;;2.70;2.00;;;13.30;99.90;;;;;;5078690;28;20494;-66
2022/06/19 10:09:54;;;;;;;3.53;3.20;;;13.40;99.90;;;;;;5083620;28;20485;-66
2022/06/19 10:12:31;;;;;;;2.67;2.40;;;13.30;99.90;;;;;;5082985;28;20466;-66
2022/06/19 10:15:06;;;;;;;3.57;2.83;;;13.40;99.90;;;;;;5083117;28;20465;-66
2022/06/19 10:17:50;;;;;;;3.83;3.00;;;13.40;99.90;;;;;;5083013;28;20461;-66
2022/06/19 10:20:29;;;;;;;4.37;2.97;;;13.30;99.90;;;;;;5082177;28;20483;-66
2022/06/19 10:23:10;;;;;;;3.97;2.73;;;13.20;99.90;;;;;;5083493;28;20827;-66
2022/06/19 10:25:49;;;;;;;2.60;2.40;;;13.20;99.90;;;;;;5075714;28;20575;-67
2022/06/19 10:28:51;;;;;;;3.83;3.10;;;13.20;99.90;;;;;;5081049;28;20672;-67
2022/06/19 10:31:33;;;;;;;4.27;2.37;;;13.20;99.90;;;;;;5072303;28;20463;-66
2022/06/19 10:34:14;;;;;;;3.30;2.50;;;13.20;99.90;;;;;;5082579;28;20479;-66
2022/06/19 10:37:02;;;;;;;3.00;2.00;;;13.20;99.90;;;;;;5081864;28;21153;-66
2022/06/19 10:39:46;;;;;;;2.87;2.20;;;13.20;99.90;;;;;;5078889;28;20986;-67
2022/06/19 10:42:31;;;;;;;2.70;2.33;;;13.20;99.90;;;;;;5065201;28;20450;-67
2022/06/19 10:45:33;;;;;;;2.93;2.50;;;13.10;99.90;;;;;;5082696;28;20462;-66
2022/06/19 10:48:17;;;;;;;3.73;2.30;;;13.10;99.90;;;;;;5077642;28;20521;-66
2022/06/19 10:50:52;;;;;;;4.97;2.30;;;12.90;99.90;;;;;;5082907;28;20442;-66
2022/06/19 10:53:48;;;;;;;2.90;2.10;;;12.90;99.90;;;;;;5082788;28;20451;-66
2022/06/19 10:56:33;;;;;;;3.30;2.60;;;12.90;99.90;;;;;;5080146;28;20451;-66
2022/06/19 10:59:06;;;;;;;2.83;2.00;;;12.90;99.90;;;;;;5082155;28;20807;-66
2022/06/19 11:04:41;;;;;;;2.90;2.33;;;12.90;99.90;;;;;;5081875;28;20992;-66
2022/06/19 11:07:17;;;;;;;2.50;2.30;;;12.80;99.90;;;;;;5081164;28;20493;-65
2022/06/19 11:09:52;;;;;;;3.17;2.43;;;12.80;99.90;;;;;;5080323;28;20455;-66
2022/06/19 11:12:29;;;;;;;3.93;2.77;;;12.80;99.90;;;;;;5081239;28;20917;-66
2022/06/19 11:15:03;;;;;;;2.67;2.07;;;12.80;99.90;;;;;;5082099;28;20463;-66
2022/06/19 11:17:37;;;;;;;3.47;2.57;;;12.80;99.90;;;;;;5081805;28;20444;-66
2022/06/19 11:20:30;;;;;;;4.50;2.50;;;12.80;99.90;;;;;;5082050;28;20483;-66
2022/06/19 11:23:05;;;;;;;3.87;2.27;;;12.90;99.90;;;;;;5078745;28;20455;-66
2022/06/19 11:25:38;;;;;;;3.80;2.53;;;12.90;99.90;;;;;;5080100;28;20559;-66
2022/06/19 11:28:13;;;;;;;2.47;2.27;;;13.00;99.90;;;;;;5082297;28;20491;-66
2022/06/19 11:30:50;;;;;;;3.73;2.40;;;13.00;99.90;;;;;;5082131;28;20481;-66
2022/06/19 11:33:32;;;;;;;3.93;3.10;;;13.00;99.90;;;;;;5081633;28;20451;-66
2022/06/19 11:36:05;;;;;;;2.60;2.40;;;13.00;99.90;;;;;;5080800;28;20714;-66
2022/06/19 11:38:40;;;;;;;5.17;2.43;;;12.90;99.90;;;;;;5081152;28;20490;-66
2022/06/19 11:41:18;;;;;;;3.00;2.60;;;12.90;99.90;;;;;;5080616;28;20467;-66
2022/06/19 11:44:02;;;;;;;3.40;2.40;;;12.90;99.90;;;;;;5081183;28;20459;-66
2022/06/19 11:46:46;;;;;;;4.30;2.77;;;12.90;99.90;;;;;;5077032;28;20506;-66
2022/06/19 11:49:36;;;;;;;2.87;2.53;;;12.80;99.90;;;;;;5080876;28;20490;-67
2022/06/19 11:52:17;;;;;;;4.33;2.60;;;12.80;99.90;;;;;;5074129;28;20448;-66
2022/06/19 11:54:51;;;;;;;4.10;3.00;;;12.70;99.90;;;;;;5080860;28;20542;-66
2022/06/19 11:57:28;;;;;;;5.27;3.20;;;12.70;99.90;;;;;;5080212;28;20876;-66
2022/06/19 12:00:02;;;;;;;3.80;2.60;;;12.70;99.90;;;;;;5081689;28;20600;-66
2022/06/19 12:02:38;;;;;;;2.50;2.30;;;12.80;99.90;;;;;;5081542;28;20463;-66
2022/06/19 12:05:24;;;;;;;3.73;2.73;;;12.80;99.90;;;;;;5080566;28;20467;-66
2022/06/19 12:07:56;;;;;;;3.27;2.67;;;12.80;99.90;;;;;;5079106;28;20541;-66
2022/06/19 12:10:30;;;;;;;3.40;2.60;;;12.80;99.90;;;;;;5080375;28;20460;-66
2022/06/19 12:13:02;;;;;;;3.70;2.80;;;12.80;99.90;;;;;;5082334;28;20459;-66
2022/06/19 12:15:34;;;;;;;3.90;2.50;;;12.80;99.90;;;;;;5080398;28;20463;-66
2022/06/19 12:18:18;;;;;;;3.70;2.60;;;12.80;99.90;;;;;;5081521;28;20481;-66
2022/06/19 12:21:00;;;;;;;3.10;1.57;;;12.90;99.90;;;;;;5080013;28;20867;-66
2022/06/19 12:23:38;;;;;;;3.33;1.80;;;13.00;99.90;;;;;;5081056;28;20474;-66
2022/06/19 12:26:13;;;;;;;2.43;1.90;;;13.00;99.90;;;;;;5080488;28;20915;-66
2022/06/19 12:28:50;;;;;;;2.80;1.83;;;13.00;99.90;;;;;;5079914;28;20556;-66
2022/06/19 12:31:24;;;;;;;2.37;1.93;;;13.00;99.90;;;;;;5075739;28;20462;-66
2022/06/19 12:34:03;;;;;;;2.23;1.67;;;12.90;99.90;;;;;;5085937;28;20948;-66
2022/06/19 12:36:38;;;;;;;5.60;2.13;;;12.90;99.90;;;;;;5083455;28;20470;-66
2022/06/19 12:39:18;;;;;;;2.87;1.77;;;12.80;99.90;;;;;;5085477;28;20619;-66
2022/06/19 12:41:58;;;;;;;3.63;1.87;;;12.80;99.90;;;;;;5083713;28;20463;-67
2022/06/19 12:44:42;;;;;;;1.50;1.40;;;12.70;99.90;;;;;;5086157;28;20807;-66
2022/06/19 12:47:21;;;;;;;2.20;1.90;;;12.70;99.90;;;;;;5084325;28;20455;-66
2022/06/19 12:50:17;;;;;;;3.17;2.00;;;12.80;99.90;;;;;;5085077;28;20479;-66
2022/06/19 12:53:00;;;;;;;2.80;1.80;;;12.80;99.90;;;;;;5085835;28;20459;-66
2022/06/19 12:55:48;;;;;;;1.83;1.70;;;12.80;99.90;;;;;;5080168;28;20554;-66
2022/06/19 12:58:51;;;;;;;2.30;2.00;;;12.80;99.90;;;;;;5084309;28;20466;-66
2022/06/19 13:01:31;;;;;;;2.53;1.87;;;12.80;99.90;;;;;;5078264;28;20458;-66
2022/06/19 13:04:12;;;;;;;3.17;1.93;;;12.80;99.90;;;;;;5084002;28;20974;-66
2022/06/19 13:06:58;;;;;;;2.50;1.70;;;12.90;99.90;;;;;;5083684;28;20960;-66
2022/06/19 13:09:56;;;;;;;2.90;1.70;;;12.90;99.90;;;;;;5084544;28;20491;-66
2022/06/19 13:12:41;;;;;;;2.93;1.77;;;12.80;99.90;;;;;;5083443;28;20455;-66
2022/06/19 13:15:45;;;;;;;2.83;2.17;;;12.80;99.90;;;;;;5077396;28;20473;-66
2022/06/19 13:18:23;;;;;;;2.20;1.80;;;12.90;99.90;;;;;;5065308;28;20542;-65
2022/06/19 13:21:00;;;;;;;2.50;2.27;;;12.90;99.90;;;;;;5084071;28;20883;-66
2022/06/19 13:23:38;;;;;;;2.43;2.23;;;12.90;99.90;;;;;;5084307;28;20468;-67
2022/06/19 13:29:22;;;;;;;1.87;1.70;;;12.90;99.90;;;;;;5081638;28;20491;-66
2022/06/19 13:31:58;;;;;;;2.83;1.67;;;13.00;99.90;;;;;;5082237;28;20467;-65
2022/06/19 13:34:40;;;;;;;3.27;1.47;;;13.00;99.90;;;;;;5082854;28;20455;-66
2022/06/19 13:37:19;;;;;;;3.10;1.97;;;13.00;99.90;;;;;;5083465;28;20465;-65
2022/06/19 13:39:58;;;;;;;3.40;2.03;;;13.10;99.90;;;;;;5083807;28;20471;-66
2022/06/19 13:42:46;;;;;;;3.20;2.30;;;13.20;99.90;;;;;;5083863;28;20931;-66
2022/06/19 13:45:42;;;;;;;5.50;2.40;;;13.20;99.90;;;;;;5084196;28;20459;-66